Time,TemperatureF,DewpointF,PressureIn,WindDirection,WindDirectionDegrees,WindSpeedMPH,WindSpeedGustMPH,Humidity,HourlyPrecipIn,Conditions,Clouds,dailyrainin,SolarRadiationWatts/m^2,SoftwareType,DateUTC
2013-04-19 00:01:00,51.0,34.0,-100.00,SW,234,1.0,3.0,51,0.00,,,0.00,0.000000,,2013-04-19 07:01:00,
2013-04-19 00:32:00,49.0,33.0,-100.00,SW,218,3.0,6.0,54,0.00,,,0.00,0.000000,,2013-04-19 07:32:00,
2013-04-19 00:42:00,49.0,33.0,-100.00,SW,218,3.0,6.0,54,0.00,,,0.00,0.000000,,2013-04-19 07:42:00,
2013-04-19 00:52:00,49.0,33.0,-100.00,SW,218,3.0,6.0,54,0.00,,,0.00,0.000000,,2013-04-19 07:52:00,
2013-04-19 01:02:00,49.0,33.0,-100.00,SW,218,3.0,6.0,54,0.00,,,0.00,0.000000,,2013-04-19 08:02:00,
2013-04-19 01:33:00,51.0,33.0,-100.00,SW,219,4.0,7.0,49,0.00,,,0.00,0.000000,,2013-04-19 08:33:00,
2013-04-19 01:42:00,51.0,33.0,-100.00,SW,219,4.0,7.0,49,0.00,,,0.00,0.000000,,2013-04-19 08:42:00,
2013-04-19 01:52:00,51.0,33.0,-100.00,SW,219,4.0,7.0,49,0.00,,,0.00,0.000000,,2013-04-19 08:52:00,
2013-04-19 02:01:00,51.0,33.0,-100.00,SW,219,4.0,7.0,49,0.00,,,0.00,0.000000,,2013-04-19 09:01:00,
2013-04-19 02:33:00,49.0,32.0,-100.00,WSW,246,2.0,6.0,52,0.00,,,0.00,0.000000,,2013-04-19 09:33:00,
2013-04-19 02:43:00,49.0,32.0,-100.00,WSW,246,2.0,6.0,52,0.00,,,0.00,0.000000,,2013-04-19 09:43:00,
2013-04-19 02:52:00,49.0,32.0,-100.00,WSW,246,2.0,6.0,52,0.00,,,0.00,0.000000,,2013-04-19 09:52:00,
2013-04-19 03:02:00,49.0,32.0,-100.00,WSW,246,2.0,6.0,52,0.00,,,0.00,0.000000,,2013-04-19 10:02:00,
2013-04-19 03:33:00,49.0,32.0,-100.00,SW,226,3.0,6.0,52,0.00,,,0.00,0.000000,,2013-04-19 10:33:00,
2013-04-19 03:42:00,49.0,32.0,-100.00,SW,226,3.0,6.0,52,0.00,,,0.00,0.000000,,2013-04-19 10:42:00,
2013-04-19 03:52:00,49.0,32.0,-100.00,SW,226,3.0,6.0,52,0.00,,,0.00,0.000000,,2013-04-19 10:52:00,
2013-04-19 04:02:00,49.0,32.0,-100.00,SW,226,3.0,6.0,52,0.00,,,0.00,0.000000,,2013-04-19 11:02:00,
2013-04-19 04:32:00,48.0,31.0,-100.00,WSW,251,4.0,9.0,52,0.00,,,0.00,0.000000,,2013-04-19 11:32:00,
2013-04-19 04:43:00,48.0,31.0,-100.00,WSW,251,4.0,9.0,52,0.00,,,0.00,0.000000,,2013-04-19 11:43:00,
2013-04-19 04:52:00,48.0,31.0,-100.00,WSW,251,4.0,9.0,52,0.00,,,0.00,0.000000,,2013-04-19 11:52:00,
2013-04-19 05:02:00,48.0,31.0,-100.00,WSW,251,4.0,9.0,52,0.00,,,0.00,0.000000,,2013-04-19 12:02:00,
2013-04-19 05:22:00,48.0,32.0,-100.00,West,260,4.0,8.0,54,0.00,,,0.00,0.000000,,2013-04-19 12:22:00,
2013-04-19 05:32:00,48.0,32.0,-100.00,West,260,4.0,8.0,54,0.00,,,0.00,0.000000,,2013-04-19 12:32:00,
2013-04-19 05:42:00,48.0,32.0,-100.00,West,260,4.0,8.0,54,0.00,,,0.00,0.000000,,2013-04-19 12:42:00,
2013-04-19 05:52:00,48.0,32.0,-100.00,West,260,4.0,8.0,54,0.00,,,0.00,0.000000,,2013-04-19 12:52:00,
2013-04-19 06:01:00,48.0,32.0,-100.00,West,260,4.0,8.0,54,0.00,,,0.00,0.000000,,2013-04-19 13:01:00,
2013-04-19 06:32:00,47.0,32.0,-100.00,SW,235,4.0,7.0,56,0.00,,,0.00,0.000000,,2013-04-19 13:32:00,
2013-04-19 06:42:00,47.0,32.0,-100.00,SW,235,4.0,7.0,56,0.00,,,0.00,0.000000,,2013-04-19 13:42:00,
2013-04-19 06:52:00,47.0,32.0,-100.00,SW,235,4.0,7.0,56,0.00,,,0.00,0.000000,,2013-04-19 13:52:00,
2013-04-19 07:01:00,47.0,32.0,-100.00,SW,235,4.0,7.0,56,0.00,,,0.00,0.000000,,2013-04-19 14:01:00,
2013-04-19 07:22:00,47.0,32.0,-100.00,SSW,196,3.0,9.0,56,0.00,,,0.00,7.000000,,2013-04-19 14:22:00,
2013-04-19 07:32:00,47.0,32.0,-100.00,SSW,196,3.0,9.0,56,0.00,,,0.00,7.000000,,2013-04-19 14:32:00,
2013-04-19 07:43:00,47.0,32.0,-100.00,SSW,196,3.0,9.0,56,0.00,,,0.00,7.000000,,2013-04-19 14:43:00,
2013-04-19 07:52:00,47.0,32.0,-100.00,SSW,196,3.0,9.0,56,0.00,,,0.00,7.000000,,2013-04-19 14:52:00,
2013-04-19 08:01:00,47.0,32.0,-100.00,SSW,196,3.0,9.0,56,0.00,,,0.00,7.000000,,2013-04-19 15:01:00,
2013-04-19 08:22:00,54.0,34.0,-100.00,SW,217,3.0,12.0,46,0.00,,,0.00,147.000000,,2013-04-19 15:22:00,
2013-04-19 08:33:00,54.0,34.0,-100.00,SW,217,3.0,12.0,46,0.00,,,0.00,147.000000,,2013-04-19 15:33:00,
2013-04-19 08:43:00,54.0,34.0,-100.00,SW,217,3.0,12.0,46,0.00,,,0.00,147.000000,,2013-04-19 15:43:00,
2013-04-19 08:52:00,54.0,34.0,-100.00,SW,217,3.0,12.0,46,0.00,,,0.00,147.000000,,2013-04-19 15:52:00,
2013-04-19 09:03:00,54.0,34.0,-100.00,SW,217,3.0,12.0,46,0.00,,,0.00,147.000000,,2013-04-19 16:03:00,
2013-04-19 09:33:00,61.0,35.0,-100.00,SW,224,3.0,7.0,37,0.00,,,0.00,379.000000,,2013-04-19 16:33:00,
2013-04-19 09:42:00,61.0,35.0,-100.00,SW,224,3.0,7.0,37,0.00,,,0.00,379.000000,,2013-04-19 16:42:00,
2013-04-19 09:52:00,61.0,35.0,-100.00,SW,224,3.0,7.0,37,0.00,,,0.00,379.000000,,2013-04-19 16:52:00,
2013-04-19 10:02:00,61.0,35.0,-100.00,SW,224,3.0,7.0,37,0.00,,,0.00,379.000000,,2013-04-19 17:02:00,
2013-04-19 10:33:00,73.0,34.0,-100.00,NNW,346,2.0,6.0,24,0.00,,,0.00,582.000000,,2013-04-19 17:33:00,
2013-04-19 11:01:00,73.0,34.0,-100.00,NNW,346,2.0,6.0,24,0.00,,,0.00,582.000000,,2013-04-19 18:01:00,
2013-04-19 11:33:00,76.0,31.0,-100.00,East,86,7.0,11.0,19,-99.99,,,0.00,757.000000,,2013-04-19 18:33:00,
2013-04-19 12:01:00,76.0,31.0,-100.00,East,86,7.0,11.0,19,-99.99,,,0.00,757.000000,,2013-04-19 19:01:00,
2013-04-19 12:32:00,80.0,33.0,-100.00,ENE,71,5.0,17.0,18,0.00,,,0.00,878.000000,,2013-04-19 19:32:00,
2013-04-19 13:32:00,83.0,34.0,-100.00,East,90,4.0,12.0,17,0.00,,,0.00,947.000000,,2013-04-19 20:32:00,
2013-04-19 14:32:00,83.0,32.0,-100.00,ESE,116,5.0,11.0,16,-99.99,,,-99.99,949.000000,,2013-04-19 21:32:00,
2013-04-19 15:33:00,85.0,32.0,-100.00,NE,49,5.0,13.0,15,0.00,,,0.00,886.000000,,2013-04-19 22:33:00,
2013-04-19 16:32:00,85.0,34.0,-100.00,NNE,31,5.0,11.0,16,-99.99,,,0.00,783.000000,,2013-04-19 23:32:00,
2013-04-19 18:32:00,80.0,35.0,-100.00,ENE,63,4.0,11.0,20,-99.99,,,0.00,334.000000,,2013-04-20 01:32:00,
2013-04-19 19:32:00,74.0,36.0,-100.00,NE,46,7.0,16.0,25,0.00,,,0.00,50.000000,,2013-04-20 02:32:00,
2013-04-19 19:42:00,74.0,36.0,-100.00,NE,46,7.0,16.0,25,0.00,,,0.00,50.000000,,2013-04-20 02:42:00,
2013-04-19 19:52:00,74.0,36.0,-100.00,NE,46,7.0,16.0,25,0.00,,,0.00,50.000000,,2013-04-20 02:52:00,
2013-04-19 20:01:00,74.0,36.0,-100.00,NE,46,7.0,16.0,25,0.00,,,0.00,50.000000,,2013-04-20 03:01:00,
2013-04-19 20:33:00,68.0,38.0,-100.00,SSE,160,1.0,10.0,33,0.00,,,0.00,7.000000,,2013-04-20 03:33:00,
2013-04-19 20:43:00,68.0,38.0,-100.00,SSE,160,1.0,10.0,33,0.00,,,0.00,7.000000,,2013-04-20 03:43:00,
2013-04-19 20:53:00,68.0,38.0,-100.00,SSE,160,1.0,10.0,33,0.00,,,0.00,7.000000,,2013-04-20 03:53:00,
2013-04-19 21:02:00,68.0,38.0,-100.00,SSE,160,1.0,10.0,33,0.00,,,0.00,7.000000,,2013-04-20 04:02:00,
2013-04-19 21:33:00,61.0,39.0,-100.00,SW,225,1.0,4.0,44,0.00,,,-99.99,0.000000,,2013-04-20 04:33:00,
2013-04-19 22:02:00,61.0,39.0,-100.00,SW,225,1.0,4.0,44,0.00,,,-99.99,0.000000,,2013-04-20 05:02:00,
2013-04-19 22:22:00,57.0,40.0,-100.00,WSW,258,1.0,4.0,52,0.00,,,0.00,0.000000,,2013-04-20 05:22:00,
2013-04-19 22:32:00,57.0,40.0,-100.00,WSW,258,1.0,4.0,52,0.00,,,0.00,0.000000,,2013-04-20 05:32:00,
2013-04-19 22:43:00,57.0,40.0,-100.00,WSW,258,1.0,4.0,52,0.00,,,0.00,0.000000,,2013-04-20 05:43:00,
2013-04-19 22:52:00,57.0,40.0,-100.00,WSW,258,1.0,4.0,52,0.00,,,0.00,0.000000,,2013-04-20 05:52:00,
2013-04-19 23:01:00,57.0,40.0,-100.00,WSW,258,1.0,4.0,52,0.00,,,0.00,0.000000,,2013-04-20 06:01:00,
2013-04-19 23:32:00,55.0,39.0,-100.00,SE,138,0.0,4.0,55,0.00,,,0.00,0.000000,,2013-04-20 06:32:00,
2013-04-19 23:42:00,55.0,39.0,-100.00,SE,138,0.0,4.0,55,0.00,,,0.00,0.000000,,2013-04-20 06:42:00,
2013-04-19 23:52:00,55.0,39.0,-100.00,SE,138,0.0,4.0,55,0.00,,,0.00,0.000000,,2013-04-20 06:52:00,